• Join FlightAware (Why Join?)
  • Login
  • US Flag 
04:09AM EDT


 

Airport Tracker/Info


-or-


 

Live Flight TrackerFlight Track Log ✈ TCF3494 ✈ 15-Jul-2013 ✈ KORD - KLGA

Flight Track Log - Related Links

Times and Time Zones

All times are in EDT time to prevent confusion due to time zone crossing. See the TCF3494 flight status page for this flight to view local times or setup timezone preferences in your user account.

Time Position Orientation Groundspeed Altitude Reporting Facility
EDT Latitude Longitude Course Direction KTS MPH feet Rate Location/Type
09:42PM 41.9667 -87.8833 90° East 156 180 1,800  Level Chicago TRACON
09:43PM 41.9667 -87.8000 90° East 209 241 3,300 1,860 Climbing Chicago TRACON
09:44PM 41.9619 -87.6811 93° East 269 310 6,100 2,520 Climbing Chicago Center
09:45PM 41.9502 -87.3684 98° East  Level FlightAware Approximate
09:45PM 41.9600 -87.5747 91° East 285 328 9,200  Level Chicago Center
09:46PM 41.9407 -87.2357 95° East  Level FlightAware Approximate
09:46PM 41.9572 -87.4631 92° East 298 343 11,900  Level Chicago Center
09:47PM 41.9333 -87.1030 90° East  Level FlightAware Approximate
09:48PM 41.9333 -86.8906 90° East  Level FlightAware Approximate
09:48PM 41.9533 -87.3444 92° East 314 361 14,500  Level Chicago Center
09:49PM 41.9494 -87.2197 92° East 333 383 16,100 1,740 Climbing Chicago Center
09:50PM 41.9450 -87.0589 92° East 358 412 18,200 1,860 Climbing Chicago Center
09:51PM 41.9472 -86.9219 89° East 369 425 20,000 1,740 Climbing Chicago Center
09:52PM 41.9494 -86.7783 89° East 383 441 21,900 1,740 Climbing Chicago Center
09:53PM 41.9506 -86.6289 89° East 388 447 23,600 1,560 Climbing Chicago Center
09:54PM 41.9528 -86.4781 89° East 399 459 25,200 1,800 Climbing Chicago Center
09:55PM 41.9547 -86.3267 89° East 405 466 27,400 1,800 Climbing Chicago Center
09:56PM 41.9539 -86.1822 90° East 391 450 29,000 1,560 Climbing Chicago Center
09:57PM 41.9392 -86.0389 98° East 388 447 30,600 1,620 Climbing Chicago Center
09:58PM 41.9236 -85.8681 97° East 385 443 32,400 1,500 Climbing Chicago Center
09:59PM 41.9108 -85.7258 97° East 382 440 33,700 1,200 Climbing Chicago Center
10:00PM 41.8981 -85.5861 97° East 377 434 35,000 600 Climbing Chicago Center
10:01PM 41.8853 -85.4414 97° East 383 441 35,000 360 Level Chicago Center
10:02PM 41.8700 -85.2883 98° East 403 464 35,800 720 Climbing Chicago Center
10:03PM 41.8553 -85.1344 97° East 411 473 36,500 540 Climbing Chicago Center
10:04PM 41.8378 -84.9819 99° East 411 473 37,000 240 Climbing Chicago Center
10:05PM 41.8208 -84.8269 98° East 422 486 37,000  Level Chicago Center
10:06PM 41.8036 -84.6717 98° East 421 484 37,000 720 Level Chicago Center
10:07PM 41.7844 -84.4908 98° East 409 471 38,500 960 Climbing Chicago Center
10:08PM 41.7767 -84.3464 94° East 393 452 39,000 240 Climbing Chicago Center
10:09PM 41.7769 -84.1986 90° East 397 457 39,000  Level Chicago Center
10:10PM 41.7725 -84.0358 92° East 399 459 39,000  Level Cleveland Center
10:11PM 41.7706 -83.8853 91° East 399 459 39,000  Level Cleveland Center
10:12PM 41.7603 -83.7317 95° East 406 467 39,000  Level Cleveland Center
10:13PM 41.7500 -83.5753 95° East 411 473 39,000  Level Cleveland Center
10:14PM 41.7372 -83.4189 96° East 411 473 39,000  Level Cleveland Center
10:15PM 41.7264 -83.2653 95° East 411 473 39,000  Level Cleveland Center
10:16PM 41.7133 -83.1089 96° East 416 479 39,000  Level Cleveland Center
10:17PM 41.7000 -82.9528 96° East 416 479 39,000  Level Cleveland Center
10:18PM 41.6883 -82.7964 96° East 416 479 39,000  Level Cleveland Center
10:19PM 41.6767 -82.6403 96° East 421 484 39,000  Level Cleveland Center
10:20PM 41.6608 -82.4675 97° East 428 493 39,000  Level Cleveland Center
10:21PM 41.6525 -82.3394 95° East 428 493 39,000  Level Cleveland Center
10:22PM 41.6403 -82.1753 96° East 421 484 39,000  Level Cleveland Center
10:23PM 41.6258 -82.0192 97° East 416 479 39,000  Level Cleveland Center
10:24PM 41.6111 -81.8494 97° East 421 484 39,000  Level Cleveland Center
10:25PM 41.5981 -81.6911 96° East 426 490 39,000  Level Cleveland Center
10:26PM 41.5828 -81.5353 97° East 426 490 39,000  Level Cleveland Center
10:27PM 41.5694 -81.3797 96° East 426 490 39,000  Level Cleveland Center
10:28PM 41.5539 -81.2242 98° East 426 490 39,000  Level Cleveland Center
10:29PM 41.5400 -81.0881 98° East 421 484 39,000  Level Cleveland Center
10:30PM 41.5239 -80.9297 98° East 421 484 39,000  Level Cleveland Center
10:31PM 41.5094 -80.7772 97° East 421 484 39,000  Level Cleveland Center
10:32PM 41.4931 -80.6275 98° East 416 479 39,000  Level Cleveland Center
10:33PM 41.4764 -80.4722 98° East 416 479 39,000  Level Cleveland Center
10:34PM 41.4614 -80.3061 97° East 416 479 39,000  Level Cleveland Center
10:35PM 41.4464 -80.1511 97° East 416 479 39,000  Level Cleveland Center
10:36PM 41.4292 -79.9989 99° East 416 479 39,000  Level Cleveland Center
10:37PM 41.4114 -79.8467 99° East 411 473 39,000  Level Cleveland Center
10:38PM 41.3958 -79.6975 98° East 411 473 39,000  Level Cleveland Center
10:39PM 41.3800 -79.5397 98° East 417 480 39,000  Level Cleveland Center
10:40PM 41.3639 -79.3853 98° East 422 486 39,000  Level Cleveland Center
10:41PM 41.3456 -79.2361 99° East 422 486 39,000  Level Cleveland Center
10:42PM 41.3269 -79.0844 99° East 416 479 39,000  Level Cleveland Center
10:43PM 41.3103 -78.9272 98° East 421 484 39,000  Level Cleveland Center
10:44PM 41.2911 -78.7731 99° East 427 491 39,000  Level Cleveland Center
10:46PM 41.2567 -78.4772 99° East 427 491 39,000  Level New York Center
10:47PM 41.2408 -78.3347 98° East 432 497 39,000  Level New York Center
10:48PM 41.2211 -78.1833 100° East 426 490 39,000  Level New York Center
10:49PM 41.2014 -78.0322 100° East 420 483 39,000  Level New York Center
10:50PM 41.1817 -77.8756 99° East 420 483 39,000  Level New York Center
10:51PM 41.1617 -77.7219 100° East 420 483 39,000 -660 Level New York Center
10:52PM 41.1433 -77.5711 99° East 415 478 37,700 -1,800 Descending New York Center
10:53PM 41.1228 -77.4175 100° East 415 478 35,400 -2,460 Descending New York Center
10:54PM 41.1006 -77.2531 100° East 415 478 32,800 -2,400 Descending New York Center
10:55PM 41.0781 -77.0911 100° East 421 484 30,600 -2,340 Descending New York Center
10:56PM 41.0572 -76.9322 100° East 432 497 28,200 -2,460 Descending New York Center
10:57PM 41.0347 -76.7650 100° East 444 511 25,700 -2,400 Descending New York Center
10:58PM 41.0072 -76.6058 103° East 444 511 23,400 -2,280 Descending New York Center
10:59PM 40.9706 -76.4572 108° East 438 504 21,200 -2,280 Descending New York Center
11:00PM 40.9378 -76.3142 107° East 420 483 18,800 -1,680 Descending New York Center
11:01PM 40.9050 -76.1689 107° East 415 478 18,000 -420 Descending New York Center
11:02PM 40.8678 -76.0258 109° East 410 472 18,000 -360 Level New York Center
11:03PM 40.8342 -75.8833 107° East 415 478 17,300 -1,500 Descending New York Center
11:04PM 40.8022 -75.7575 109° East 404 465 15,100 -2,160 Descending New York Center
11:05PM 40.7667 -75.6097 108° East 387 445 13,000 -1,080 Descending New York Center
11:06PM 40.7344 -75.4789 108° East 387 445 13,000  Level New York Center
11:07PM 40.7042 -75.3453 107° East 382 440 13,000  Level New York Center
11:08PM 40.6833 -75.2372 104° East 377 434 13,000 -840 Level New York Center
11:09PM 40.6261 -75.0939 118° Southeast 377 434 11,300 -1,560 Descending New York Center
11:10PM 40.5653 -74.9944 129° Southeast 358 412 10,000 -600 Descending New York Center
11:11PM 40.5294 -74.8831 113° Southeast 337 388 10,100  Climbing New York Center
11:12PM 40.5167 -74.8167 104° East 306 352 10,000 -300 Descending New York TRACON
11:13PM 40.4833 -74.7167 114° Southeast 300 345 9,700 -480 Descending New York TRACON
11:14PM 40.4500 -74.6000 111° Southeast 300 345 9,000 -600 Descending New York TRACON
11:15PM 40.4167 -74.5167 118° Southeast 297 342 8,600 -540 Descending New York TRACON
11:16PM 40.4000 -74.4167 102° East 265 305 8,000 -300 Descending New York TRACON
11:17PM 40.3667 -74.3167 114° Southeast 248 285 8,000 -480 Level New York TRACON
11:18PM 40.3833 -74.2333 75° East 242 278 7,100 -1,020 Descending New York TRACON
11:19PM 40.4167 -74.1667 57° Northeast 229 264 6,000 -1,200 Descending New York TRACON
11:20PM 40.4667 -74.1333 27° Northeast 218 251 4,800 -1,200 Descending New York TRACON
11:21PM 40.5167 -74.0833 37° Northeast 217 250 3,600 -1,020 Descending New York TRACON
11:22PM 40.5833 -74.0500 21° North 210 242 2,800 -480 Descending New York TRACON
11:23PM 40.6333 -74.0000 37° Northeast 215 247 2,700 -120 Descending New York TRACON